createdAt,value
2023-02-23T00:01:31.358Z,101328.52
2023-02-23T00:04:01.534Z,101335.27
2023-02-23T00:06:33.179Z,101339.78
2023-02-23T00:09:08.927Z,101337.38
2023-02-23T00:11:38.722Z,101328.75
2023-02-23T00:14:11.079Z,101333.03
2023-02-23T00:16:42.899Z,101325.97
2023-02-23T00:19:14.165Z,101327.48
2023-02-23T00:21:44.004Z,101329.72
2023-02-23T00:24:16.577Z,101325.84
2023-02-23T00:26:47.884Z,101334.63
2023-02-23T00:29:20.708Z,101333.58
2023-02-23T00:31:52.237Z,101330.92
2023-02-23T00:34:23.589Z,101335.14
2023-02-23T00:36:55.617Z,101335.27
2023-02-23T00:39:27.139Z,101335.34
2023-02-23T00:41:59.220Z,101336.89
2023-02-23T00:44:28.715Z,101334.85
2023-02-23T00:46:58.562Z,101338.58
2023-02-23T00:49:28.455Z,101333.17
2023-02-23T00:51:58.223Z,101333.17
2023-02-23T00:54:28.198Z,101327.00
2023-02-23T00:56:58.107Z,101327.00
2023-02-23T00:59:29.656Z,101322.36
2023-02-23T01:01:59.464Z,101327.22
2023-02-23T01:04:29.868Z,101325.17
2023-02-23T01:07:00.034Z,101334.36
2023-02-23T01:09:29.890Z,101335.68
2023-02-23T01:12:04.806Z,101328.52
2023-02-23T01:14:35.642Z,101334.70
2023-02-23T01:17:07.469Z,101332.05
2023-02-23T01:19:38.695Z,101333.26
2023-02-23T01:22:10.691Z,101322.82
2023-02-23T01:24:42.983Z,101328.84
2023-02-23T01:27:13.649Z,101328.84
2023-02-23T01:29:43.208Z,101331.68
2023-02-23T01:32:14.067Z,101331.68
2023-02-23T01:34:43.941Z,101331.34
2023-02-23T01:40:08.989Z,101336.80
2023-02-23T01:42:42.040Z,101336.28
2023-02-23T01:45:34.072Z,101331.77
2023-02-23T01:48:10.559Z,101339.25
2023-02-23T01:50:55.216Z,101340.28
2023-02-23T01:53:27.486Z,101345.02
2023-02-23T01:56:00.653Z,101345.21
2023-02-23T01:58:32.555Z,101349.43
2023-02-23T02:01:03.095Z,101347.83
2023-02-23T02:03:53.762Z,101357.27
2023-02-23T02:06:27.287Z,101347.58
2023-02-23T02:09:04.580Z,101349.99
2023-02-23T02:11:39.234Z,101351.25
2023-02-23T02:14:18.077Z,101341.67
2023-02-23T02:17:10.139Z,101339.27
2023-02-23T02:20:14.694Z,101337.69
2023-02-23T02:23:02.641Z,101344.16
2023-02-23T02:25:52.980Z,101307.85
2023-02-23T02:28:40.466Z,101307.85
2023-02-23T02:31:35.831Z,101340.06
2023-02-23T02:34:34.103Z,101334.03
2023-02-23T02:37:26.090Z,101336.52
2023-02-23T02:40:16.407Z,101338.84
2023-02-23T02:43:21.976Z,101343.30
2023-02-23T02:45:57.621Z,101346.14
2023-02-23T02:48:44.647Z,101345.95
2023-02-23T02:51:18.914Z,101345.67
2023-02-23T02:54:11.101Z,101349.34
2023-02-23T02:56:44.024Z,101344.69
2023-02-23T02:59:38.592Z,101341.00
2023-02-23T03:02:27.759Z,101336.61
2023-02-23T03:05:15.375Z,101342.63
2023-02-23T03:08:31.313Z,101339.84
2023-02-23T03:11:30.682Z,101340.04
2023-02-23T03:14:24.079Z,101344.12
2023-02-23T03:17:29.744Z,101341.23
2023-02-23T03:20:26.289Z,101344.78
2023-02-23T03:23:32.698Z,101348.43
2023-02-23T03:26:37.834Z,101347.77
2023-02-23T03:29:33.979Z,101357.12
2023-02-23T03:32:40.311Z,101353.38
2023-02-23T03:35:36.965Z,101353.05
2023-02-23T03:38:51.460Z,101348.12
2023-02-23T03:41:41.432Z,101351.02
2023-02-23T03:44:34.337Z,101352.53
2023-02-23T03:47:23.794Z,101356.38
2023-02-23T03:50:13.357Z,101349.30
2023-02-23T03:53:07.272Z,101357.84
2023-02-23T03:55:58.297Z,101359.36
2023-02-23T03:58:51.595Z,101350.66
2023-02-23T04:01:42.680Z,101352.64
2023-02-23T04:04:32.126Z,101354.42
2023-02-23T04:07:22.340Z,101359.78
2023-02-23T04:10:10.148Z,101362.66
2023-02-23T04:13:03.705Z,101365.56
2023-02-23T04:15:38.466Z,101366.20
2023-02-23T04:18:10.970Z,101369.91
2023-02-23T04:20:40.946Z,101372.55
2023-02-23T04:23:10.904Z,101370.95
2023-02-23T04:25:41.012Z,101371.92
2023-02-23T04:28:12.558Z,101377.62
2023-02-23T04:30:42.534Z,101381.32
2023-02-23T04:33:12.468Z,101377.05
2023-02-23T04:35:42.047Z,101382.73
2023-02-23T04:38:15.779Z,101374.50
2023-02-23T04:40:45.609Z,101377.56
2023-02-23T04:43:15.853Z,101378.58
2023-02-23T04:45:46.283Z,101380.03
2023-02-23T04:48:17.216Z,101380.03
2023-02-23T04:50:47.094Z,101378.91
2023-02-23T04:53:17.015Z,101384.55
2023-02-23T04:55:49.659Z,101384.55
2023-02-23T04:58:19.535Z,101387.80
2023-02-23T05:00:49.538Z,101390.84
2023-02-23T05:03:19.684Z,101390.84
2023-02-23T05:05:49.916Z,101382.81
2023-02-23T05:08:19.962Z,101385.48
2023-02-23T05:10:50.233Z,101389.50
2023-02-23T05:13:20.626Z,101390.45
2023-02-23T05:15:50.486Z,101387.03
2023-02-23T05:18:20.630Z,101395.19
2023-02-23T05:20:53.556Z,101391.44
2023-02-23T05:23:23.709Z,101395.89
2023-02-23T05:25:53.790Z,101399.59
2023-02-23T05:28:23.332Z,101393.77
2023-02-23T05:30:53.337Z,101398.88
2023-02-23T05:33:23.634Z,101399.26
2023-02-23T05:35:53.677Z,101404.13
2023-02-23T05:38:23.754Z,101397.84
2023-02-23T05:40:53.704Z,101402.77
2023-02-23T05:43:23.866Z,101401.35
2023-02-23T05:45:53.741Z,101405.05
2023-02-23T05:48:24.134Z,101400.38
2023-02-23T05:50:53.962Z,101404.45
2023-02-23T05:53:25.626Z,101404.45
2023-02-23T05:55:55.741Z,101404.72
2023-02-23T05:58:25.978Z,101405.97
2023-02-23T06:00:56.151Z,101413.16
2023-02-23T06:03:26.662Z,101404.25
2023-02-23T06:05:58.976Z,101408.99
2023-02-23T06:08:29.215Z,101412.76
2023-02-23T06:10:59.026Z,101417.02
2023-02-23T06:13:29.322Z,101415.28
2023-02-23T06:16:00.390Z,101418.08
2023-02-23T06:18:31.211Z,101418.91
2023-02-23T06:21:02.271Z,101416.70
2023-02-23T06:23:33.422Z,101422.49
2023-02-23T06:26:03.195Z,101422.28
2023-02-23T06:28:33.286Z,101432.00
2023-02-23T06:31:03.737Z,101436.86
2023-02-23T06:33:34.058Z,101441.59
2023-02-23T06:36:04.061Z,101438.22
2023-02-23T06:38:33.938Z,101445.88
2023-02-23T06:41:09.266Z,101452.27
2023-02-23T06:43:39.544Z,101448.40
2023-02-23T06:46:11.013Z,101457.22
2023-02-23T06:48:41.265Z,101455.36
2023-02-23T06:51:11.442Z,101456.77
2023-02-23T06:53:41.266Z,101459.45
2023-02-23T06:56:13.915Z,101463.95
2023-02-23T06:58:45.584Z,101462.91
2023-02-23T07:01:15.817Z,101466.81
2023-02-23T07:03:45.943Z,101473.05
2023-02-23T07:06:16.881Z,101478.55
2023-02-23T07:08:46.966Z,101472.20
2023-02-23T07:11:18.894Z,101467.59
2023-02-23T07:13:49.149Z,101476.09
2023-02-23T07:16:18.970Z,101483.38
2023-02-23T07:18:48.728Z,101480.09
2023-02-23T07:21:18.887Z,101491.55
2023-02-23T07:23:49.755Z,101489.34
2023-02-23T07:26:22.053Z,101496.19
2023-02-23T07:28:54.125Z,101496.50
2023-02-23T07:31:23.578Z,101502.66
2023-02-23T07:33:57.178Z,101504.22
2023-02-23T07:36:27.005Z,101501.19
2023-02-23T07:38:57.358Z,101505.70
2023-02-23T07:41:27.362Z,101506.98
2023-02-23T07:43:57.200Z,101508.71
2023-02-23T07:46:27.673Z,101512.14
2023-02-23T07:48:57.540Z,101510.06
2023-02-23T07:51:27.708Z,101514.72
2023-02-23T07:53:58.678Z,101513.06
2023-02-23T07:56:28.522Z,101516.83
2023-02-23T07:58:58.333Z,101524.99
2023-02-23T08:01:28.414Z,101532.98
2023-02-23T08:03:58.305Z,101528.76
2023-02-23T08:06:28.200Z,101531.80
2023-02-23T08:09:03.103Z,101529.63
2023-02-23T08:11:33.277Z,101536.32
2023-02-23T08:14:03.096Z,101541.61
2023-02-23T08:16:34.086Z,101541.61
2023-02-23T08:19:04.070Z,101537.42
2023-02-23T08:21:34.289Z,101548.03
2023-02-23T08:24:05.824Z,101545.19
2023-02-23T08:26:38.224Z,101550.84
2023-02-23T08:29:08.292Z,101550.84
2023-02-23T08:31:38.354Z,101551.04
2023-02-23T08:34:08.731Z,101556.69
2023-02-23T08:36:39.132Z,101549.61
2023-02-23T08:39:10.009Z,101554.78
2023-02-23T08:41:40.733Z,101561.38
2023-02-23T08:44:11.582Z,101554.94
2023-02-23T08:46:41.432Z,101569.67
2023-02-23T08:49:11.578Z,101565.91
2023-02-23T08:51:41.470Z,101577.51
2023-02-23T08:54:13.260Z,101572.13
2023-02-23T08:56:43.781Z,101568.61
2023-02-23T08:59:15.247Z,101573.16
2023-02-23T09:01:46.731Z,101574.12
2023-02-23T09:04:18.189Z,101574.12
2023-02-23T09:06:50.123Z,101582.63
2023-02-23T09:09:19.985Z,101581.45
2023-02-23T09:11:49.934Z,101591.92
2023-02-23T09:14:19.692Z,101591.92
2023-02-23T09:16:50.414Z,101594.06
2023-02-23T09:19:22.824Z,101595.95
2023-02-23T09:21:52.753Z,101603.79
2023-02-23T09:24:22.898Z,101602.52
2023-02-23T09:26:53.790Z,101604.30
2023-02-23T09:29:24.107Z,101608.47
2023-02-23T09:31:55.625Z,101607.11
2023-02-23T09:34:26.233Z,101612.22
2023-02-23T09:36:56.093Z,101614.19
2023-02-23T09:39:37.231Z,101615.88
2023-02-23T09:42:07.735Z,101619.23
2023-02-23T09:44:52.335Z,101625.50
2023-02-23T09:47:38.676Z,101618.33
2023-02-23T09:52:59.684Z,101622.40
2023-02-23T09:55:30.824Z,101620.52
2023-02-23T09:58:06.191Z,101625.92
2023-02-23T10:00:41.209Z,101621.36
2023-02-23T10:03:25.703Z,101626.05
2023-02-23T10:06:01.304Z,101622.45
2023-02-23T10:08:45.576Z,101626.11
2023-02-23T10:11:21.122Z,101627.21
2023-02-23T10:14:00.612Z,101623.55
2023-02-23T10:17:01.385Z,101637.63
2023-02-23T10:19:50.238Z,101630.48
2023-02-23T10:22:21.631Z,101626.16
2023-02-23T10:25:00.018Z,101615.98
2023-02-23T10:27:35.447Z,101617.84
2023-02-23T10:30:09.607Z,101621.88
2023-02-23T10:32:44.843Z,101629.42
2023-02-23T10:35:17.667Z,101638.45
2023-02-23T10:37:49.175Z,101635.59
2023-02-23T10:40:23.461Z,101641.05
2023-02-23T10:42:54.166Z,101643.97
2023-02-23T10:45:26.564Z,101649.52
2023-02-23T10:48:08.579Z,101647.34
2023-02-23T10:50:41.947Z,101647.50
2023-02-23T10:53:17.868Z,101641.09
2023-02-23T10:55:50.368Z,101644.93
2023-02-23T10:58:21.281Z,101646.30
2023-02-23T11:00:57.156Z,101655.64
2023-02-23T11:03:40.556Z,101653.55
2023-02-23T11:06:31.106Z,101653.55
2023-02-23T11:09:03.324Z,101655.42
2023-02-23T11:11:33.140Z,101650.11
2023-02-23T11:14:05.989Z,101649.28
2023-02-23T11:16:40.138Z,101655.59
2023-02-23T11:19:13.061Z,101654.36
2023-02-23T11:21:45.650Z,101650.78
2023-02-23T11:24:32.649Z,101651.88
2023-02-23T11:27:08.181Z,101655.34
2023-02-23T11:29:43.561Z,101650.19
2023-02-23T11:32:31.011Z,101649.56
2023-02-23T11:35:24.146Z,101640.36
2023-02-23T11:37:54.153Z,101632.59
2023-02-23T11:40:27.227Z,101634.83
2023-02-23T11:42:59.788Z,101631.31
2023-02-23T11:45:33.681Z,101635.61
2023-02-23T11:48:06.562Z,101640.96
2023-02-23T11:50:38.443Z,101644.31
2023-02-23T11:53:22.616Z,101638.25
2023-02-23T11:55:55.845Z,101641.77
2023-02-23T11:58:35.841Z,101651.34
2023-02-23T12:01:14.352Z,101651.34
2023-02-23T12:03:50.481Z,101648.02
2023-02-23T12:06:32.399Z,101642.56
2023-02-23T12:09:19.612Z,101641.17
2023-02-23T12:11:59.156Z,101639.81
2023-02-23T12:14:34.357Z,101634.33
2023-02-23T12:17:07.167Z,101636.27
2023-02-23T12:19:42.807Z,101631.88
2023-02-23T12:22:27.083Z,101625.27
2023-02-23T12:25:23.851Z,101630.53
2023-02-23T12:28:18.082Z,101631.06
2023-02-23T12:30:54.743Z,101629.08
2023-02-23T12:33:38.982Z,101630.42
2023-02-23T12:36:18.356Z,101638.73
2023-02-23T12:38:56.559Z,101634.33
2023-02-23T12:41:38.254Z,101637.00
2023-02-23T12:44:23.998Z,101632.94
2023-02-23T12:46:55.829Z,101637.50
2023-02-23T12:49:40.496Z,101636.48
2023-02-23T12:52:20.374Z,101636.86
2023-02-23T12:54:50.600Z,101637.17
2023-02-23T12:57:31.978Z,101631.49
2023-02-23T13:02:54.944Z,101630.70
2023-02-23T13:05:38.197Z,101633.29
2023-02-23T13:08:18.644Z,101633.24
2023-02-23T13:11:10.269Z,101633.56
2023-02-23T13:13:45.626Z,101643.02
2023-02-23T13:16:33.028Z,101636.39
2023-02-23T13:19:08.684Z,101635.67
2023-02-23T13:21:59.306Z,101629.08
2023-02-23T13:24:34.687Z,101625.34
2023-02-23T13:27:31.184Z,101627.09
2023-02-23T13:30:04.022Z,101627.59
2023-02-23T13:32:36.406Z,101632.63
2023-02-23T13:35:18.996Z,101626.37
2023-02-23T13:37:57.876Z,101624.20
2023-02-23T13:40:41.014Z,101617.89
2023-02-23T13:43:31.800Z,101618.66
2023-02-23T13:46:07.034Z,101619.86
2023-02-23T13:48:55.577Z,101621.11
2023-02-23T13:54:26.281Z,101622.69
2023-02-23T13:57:01.516Z,101622.52
2023-02-23T13:59:34.532Z,101621.16
2023-02-23T14:02:26.865Z,101628.17
2023-02-23T14:05:06.651Z,101635.42
2023-02-23T14:07:42.710Z,101635.42
2023-02-23T14:10:22.120Z,101637.00
2023-02-23T14:13:17.489Z,101631.66
2023-02-23T14:15:49.873Z,101637.06
2023-02-23T14:18:24.475Z,101641.59
2023-02-23T14:21:00.261Z,101643.23
2023-02-23T14:23:32.366Z,101643.51
2023-02-23T14:26:31.828Z,101642.36
2023-02-23T14:29:19.993Z,101639.83
2023-02-23T14:32:03.696Z,101643.53
2023-02-23T14:34:52.847Z,101647.30
2023-02-23T14:37:32.263Z,101648.17
2023-02-23T14:40:17.324Z,101648.17
2023-02-23T14:42:54.292Z,101649.08
2023-02-23T14:45:29.624Z,101641.13
2023-02-23T14:48:02.561Z,101638.59
2023-02-23T14:50:35.245Z,101643.34
2023-02-23T14:53:10.025Z,101645.14
2023-02-23T14:55:43.431Z,101645.14
2023-02-23T14:58:35.681Z,101642.82
2023-02-23T15:01:05.595Z,101657.64
2023-02-23T15:03:35.545Z,101650.70
2023-02-23T15:06:07.113Z,101659.94
2023-02-23T15:08:39.908Z,101650.12
2023-02-23T15:11:15.292Z,101643.63
2023-02-23T15:13:50.660Z,101643.63
2023-02-23T15:16:32.029Z,101642.13
2023-02-23T15:19:04.496Z,101643.86
2023-02-23T15:21:38.618Z,101649.98
2023-02-23T15:24:12.537Z,101649.98
2023-02-23T15:26:43.784Z,101648.88
2023-02-23T15:29:15.681Z,101645.95
2023-02-23T15:31:52.529Z,101647.89
2023-02-23T15:34:27.340Z,101656.94
2023-02-23T15:37:03.331Z,101647.43
2023-02-23T15:39:39.995Z,101641.86
2023-02-23T15:42:14.518Z,101641.41
2023-02-23T15:44:45.362Z,101644.02
2023-02-23T15:47:20.777Z,101650.56
2023-02-23T15:49:50.949Z,101643.75
2023-02-23T15:52:23.481Z,101650.89
2023-02-23T15:55:02.132Z,101654.80
2023-02-23T15:57:37.959Z,101660.84
2023-02-23T16:00:19.075Z,101663.00
2023-02-23T16:02:49.912Z,101661.35
2023-02-23T16:05:27.064Z,101657.20
2023-02-23T16:08:23.359Z,101664.94
2023-02-23T16:10:57.638Z,101659.81
2023-02-23T16:13:27.923Z,101659.59
2023-02-23T16:15:58.331Z,101659.42
2023-02-23T16:18:36.949Z,101668.63
2023-02-23T16:21:08.413Z,101668.18
2023-02-23T16:23:44.558Z,101669.91
2023-02-23T16:26:14.835Z,101670.00
2023-02-23T16:28:47.137Z,101666.20
2023-02-23T16:31:28.067Z,101666.38
2023-02-23T16:34:00.671Z,101672.64
2023-02-23T16:36:39.820Z,101664.53
2023-02-23T16:39:15.401Z,101668.24
2023-02-23T16:41:47.471Z,101670.63
2023-02-23T16:44:28.370Z,101671.88
2023-02-23T16:47:08.209Z,101671.88
2023-02-23T16:49:38.204Z,101672.45
2023-02-23T16:52:18.825Z,101676.59
2023-02-23T16:54:50.418Z,101678.19
2023-02-23T16:57:23.283Z,101677.89
2023-02-23T16:59:57.602Z,101675.17
2023-02-23T17:02:27.354Z,101679.34
2023-02-23T17:04:59.009Z,101678.44
2023-02-23T17:07:29.133Z,101682.05
2023-02-23T17:09:59.632Z,101669.95
2023-02-23T17:12:29.874Z,101680.86
2023-02-23T17:14:59.783Z,101674.19
2023-02-23T17:17:31.342Z,101682.83
2023-02-23T17:20:01.095Z,101685.31
2023-02-23T17:22:30.899Z,101693.68
2023-02-23T17:25:02.349Z,101693.47
2023-02-23T17:27:32.108Z,101690.86
2023-02-23T17:30:01.865Z,101692.73
2023-02-23T17:32:31.923Z,101692.77
2023-02-23T17:35:02.036Z,101698.62
2023-02-23T17:37:31.976Z,101708.12
2023-02-23T17:40:01.850Z,101698.17
2023-02-23T17:42:33.951Z,101707.28
2023-02-23T17:45:05.876Z,101709.64
2023-02-23T17:47:39.113Z,101706.25
2023-02-23T17:50:12.010Z,101706.02
2023-02-23T17:52:41.825Z,101702.87
2023-02-23T17:55:11.580Z,101706.28
2023-02-23T17:57:41.891Z,101711.33
2023-02-23T18:00:13.793Z,101707.44
2023-02-23T18:02:45.999Z,101714.44
2023-02-23T18:05:16.363Z,101711.53
2023-02-23T18:07:48.457Z,101710.73
2023-02-23T18:10:18.648Z,101714.80
2023-02-23T18:12:49.986Z,101730.80
2023-02-23T18:15:20.607Z,101733.48
2023-02-23T18:17:52.322Z,101728.91
2023-02-23T18:20:22.276Z,101734.46
2023-02-23T18:22:53.407Z,101737.92
2023-02-23T18:25:28.965Z,101740.58
2023-02-23T18:28:00.124Z,101737.58
2023-02-23T18:30:29.930Z,101734.46
2023-02-23T18:33:00.753Z,101733.82
2023-02-23T18:35:37.360Z,101737.22
2023-02-23T18:38:11.570Z,101745.41
2023-02-23T18:40:41.844Z,101744.13
2023-02-23T18:43:13.287Z,101749.05
2023-02-23T18:45:43.245Z,101743.61
2023-02-23T18:48:14.266Z,101757.19
2023-02-23T18:50:44.044Z,101758.41
2023-02-23T18:53:14.561Z,101761.59
2023-02-23T18:55:44.671Z,101759.11
2023-02-23T18:58:14.178Z,101760.78
2023-02-23T19:00:44.423Z,101765.43
2023-02-23T19:03:14.337Z,101770.19
2023-02-23T19:05:48.731Z,101770.73
2023-02-23T19:08:18.172Z,101771.71
2023-02-23T19:10:48.465Z,101774.82
2023-02-23T19:13:19.847Z,101776.31
2023-02-23T19:15:50.045Z,101776.31
2023-02-23T19:18:20.608Z,101781.97
2023-02-23T19:20:51.990Z,101786.91
2023-02-23T19:23:22.192Z,101788.41
2023-02-23T19:25:52.512Z,101782.65
2023-02-23T19:28:22.485Z,101780.88
2023-02-23T19:30:55.311Z,101779.41
2023-02-23T19:33:25.190Z,101771.72
2023-02-23T19:35:55.066Z,101774.73
2023-02-23T19:38:26.767Z,101769.48
2023-02-23T19:40:57.442Z,101778.69
2023-02-23T19:43:27.363Z,101770.70
2023-02-23T19:45:57.151Z,101771.23
2023-02-23T19:48:27.383Z,101775.52
2023-02-23T19:50:57.111Z,101772.41
2023-02-23T19:53:28.103Z,101768.11
2023-02-23T19:56:06.118Z,101757.65
2023-02-23T19:58:36.163Z,101760.24
2023-02-23T20:01:08.716Z,101765.22
2023-02-23T20:03:42.261Z,101756.70
2023-02-23T20:06:14.166Z,101763.25
2023-02-23T20:08:45.215Z,101773.20
2023-02-23T20:11:15.653Z,101774.86
2023-02-23T20:13:46.677Z,101783.30
2023-02-23T20:16:18.301Z,101785.46
2023-02-23T20:18:48.360Z,101776.41
2023-02-23T20:21:22.359Z,101781.23
2023-02-23T20:23:54.242Z,101788.97
2023-02-23T20:26:27.205Z,101790.11
2023-02-23T20:28:58.783Z,101791.91
2023-02-23T20:31:31.413Z,101786.08
2023-02-23T20:34:04.563Z,101779.86
2023-02-23T20:36:34.672Z,101780.38
2023-02-23T20:39:04.914Z,101788.80
2023-02-23T20:41:34.801Z,101786.02
2023-02-23T20:44:06.322Z,101785.52
2023-02-23T20:46:36.375Z,101788.97
2023-02-23T20:49:08.017Z,101782.13
2023-02-23T20:51:44.601Z,101784.61
2023-02-23T20:54:15.131Z,101779.08
2023-02-23T20:56:45.714Z,101775.28
2023-02-23T20:59:15.583Z,101782.74
2023-02-23T21:01:45.508Z,101764.92
2023-02-23T21:04:15.205Z,101764.92
2023-02-23T21:06:45.015Z,101775.14
2023-02-23T21:09:17.874Z,101781.81
2023-02-23T21:11:48.875Z,101774.09
2023-02-23T21:14:18.882Z,101767.32
2023-02-23T21:16:48.707Z,101768.55
2023-02-23T21:19:20.514Z,101762.47
2023-02-23T21:21:54.363Z,101761.78
2023-02-23T21:24:25.312Z,101764.48
2023-02-23T21:26:55.339Z,101756.57
2023-02-23T21:29:25.071Z,101759.48
2023-02-23T21:31:55.658Z,101757.92
2023-02-23T21:34:25.543Z,101760.05
2023-02-23T21:36:57.223Z,101757.25
2023-02-23T21:39:28.095Z,101753.79
2023-02-23T21:41:58.774Z,101754.36
2023-02-23T21:44:28.373Z,101753.95
2023-02-23T21:46:58.267Z,101753.95
2023-02-23T21:49:28.019Z,101749.38
2023-02-23T21:51:57.979Z,101745.06
2023-02-23T21:54:27.749Z,101744.31
2023-02-23T21:56:57.267Z,101744.31
2023-02-23T21:59:27.067Z,101753.59
2023-02-23T22:01:56.728Z,101756.13
2023-02-23T22:04:26.406Z,101753.09
2023-02-23T22:06:56.247Z,101753.09
2023-02-23T22:09:26.101Z,101752.42
2023-02-23T22:11:56.096Z,101752.42
2023-02-23T22:14:25.810Z,101760.89
2023-02-23T22:16:55.716Z,101760.89
2023-02-23T22:19:25.698Z,101762.75
2023-02-23T22:21:55.436Z,101761.36
2023-02-23T22:24:25.328Z,101760.52
2023-02-23T22:26:55.323Z,101762.63
2023-02-23T22:29:26.637Z,101755.52
2023-02-23T22:31:57.200Z,101753.40
2023-02-23T22:34:26.864Z,101753.94
2023-02-23T22:36:56.308Z,101757.10
2023-02-23T22:39:26.206Z,101756.06
2023-02-23T22:41:56.333Z,101757.95
2023-02-23T22:44:25.824Z,101754.78
2023-02-23T22:46:55.729Z,101753.11
2023-02-23T22:49:26.864Z,101751.00
2023-02-23T22:51:56.676Z,101749.80
2023-02-23T22:54:26.559Z,101740.94
2023-02-23T22:56:56.414Z,101743.74
2023-02-23T22:59:27.859Z,101731.05
2023-02-23T23:01:57.509Z,101739.36
2023-02-23T23:04:27.426Z,101740.39
2023-02-23T23:06:58.208Z,101742.05
2023-02-23T23:09:28.079Z,101734.22
2023-02-23T23:11:58.161Z,101730.97
2023-02-23T23:14:27.980Z,101729.58
2023-02-23T23:16:58.106Z,101727.33
2023-02-23T23:19:29.199Z,101729.43
2023-02-23T23:22:00.516Z,101719.20
2023-02-23T23:24:32.793Z,101719.20
2023-02-23T23:27:04.190Z,101714.32
2023-02-23T23:29:34.053Z,101723.73
2023-02-23T23:32:05.757Z,101710.44
2023-02-23T23:34:35.704Z,101713.09
2023-02-23T23:37:05.531Z,101711.00
2023-02-23T23:39:36.932Z,101710.59
2023-02-23T23:42:07.821Z,101702.20
2023-02-23T23:44:37.654Z,101700.99
2023-02-23T23:47:07.239Z,101700.06
2023-02-23T23:49:40.961Z,101697.44
2023-02-23T23:52:13.225Z,101688.77
2023-02-23T23:54:43.028Z,101692.20
2023-02-23T23:57:15.766Z,101695.02
2023-02-23T23:59:46.304Z,101687.06
